sensor_id;sensor_type;location;lat;lon;timestamp;P1;durP1;ratioP1;P2;durP2;ratioP2
13026;SDS011;6580;42.680;23.324;2022-11-14T00:00:23;56.00;;;39.07;;
13026;SDS011;6580;42.680;23.324;2022-11-14T00:02:51;56.97;;;40.00;;
13026;SDS011;6580;42.680;23.324;2022-11-14T00:05:18;60.13;;;41.03;;
13026;SDS011;6580;42.680;23.324;2022-11-14T00:07:46;53.43;;;39.23;;
13026;SDS011;6580;42.680;23.324;2022-11-14T00:10:13;54.17;;;37.40;;
13026;SDS011;6580;42.680;23.324;2022-11-14T00:12:41;55.63;;;39.00;;
13026;SDS011;6580;42.680;23.324;2022-11-14T00:15:09;51.70;;;38.57;;
13026;SDS011;6580;42.680;23.324;2022-11-14T00:17:37;55.57;;;39.60;;
13026;SDS011;6580;42.680;23.324;2022-11-14T00:20:05;59.30;;;41.40;;
13026;SDS011;6580;42.680;23.324;2022-11-14T00:22:35;61.10;;;42.30;;
13026;SDS011;6580;42.680;23.324;2022-11-14T00:25:02;61.77;;;40.77;;
13026;SDS011;6580;42.680;23.324;2022-11-14T00:27:30;60.17;;;40.83;;
13026;SDS011;6580;42.680;23.324;2022-11-14T00:29:56;56.27;;;40.97;;
13026;SDS011;6580;42.680;23.324;2022-11-14T00:32:25;61.30;;;40.67;;
13026;SDS011;6580;42.680;23.324;2022-11-14T00:34:52;57.90;;;40.03;;
13026;SDS011;6580;42.680;23.324;2022-11-14T00:37:18;58.70;;;41.87;;
13026;SDS011;6580;42.680;23.324;2022-11-14T00:39:45;59.03;;;41.60;;
13026;SDS011;6580;42.680;23.324;2022-11-14T00:42:12;58.83;;;42.00;;
13026;SDS011;6580;42.680;23.324;2022-11-14T00:44:39;64.33;;;42.87;;
13026;SDS011;6580;42.680;23.324;2022-11-14T00:47:06;60.27;;;41.57;;
13026;SDS011;6580;42.680;23.324;2022-11-14T00:49:36;59.07;;;42.77;;
13026;SDS011;6580;42.680;23.324;2022-11-14T00:52:03;63.43;;;42.90;;
13026;SDS011;6580;42.680;23.324;2022-11-14T00:54:31;60.00;;;42.23;;
13026;SDS011;6580;42.680;23.324;2022-11-14T00:56:58;61.17;;;43.50;;
13026;SDS011;6580;42.680;23.324;2022-11-14T00:59:26;59.13;;;41.20;;
13026;SDS011;6580;42.680;23.324;2022-11-14T01:01:56;59.27;;;42.53;;
13026;SDS011;6580;42.680;23.324;2022-11-14T01:04:23;60.20;;;42.07;;
13026;SDS011;6580;42.680;23.324;2022-11-14T01:06:51;64.77;;;41.77;;
13026;SDS011;6580;42.680;23.324;2022-11-14T01:09:18;61.10;;;41.73;;
13026;SDS011;6580;42.680;23.324;2022-11-14T01:11:46;58.10;;;42.23;;
13026;SDS011;6580;42.680;23.324;2022-11-14T01:14:13;63.00;;;45.77;;
13026;SDS011;6580;42.680;23.324;2022-11-14T01:16:40;66.73;;;44.40;;
13026;SDS011;6580;42.680;23.324;2022-11-14T01:19:07;71.73;;;47.63;;
13026;SDS011;6580;42.680;23.324;2022-11-14T01:21:34;64.47;;;44.87;;
13026;SDS011;6580;42.680;23.324;2022-11-14T01:24:02;68.87;;;46.33;;
13026;SDS011;6580;42.680;23.324;2022-11-14T01:26:29;64.63;;;43.93;;
13026;SDS011;6580;42.680;23.324;2022-11-14T01:28:56;68.63;;;43.47;;
13026;SDS011;6580;42.680;23.324;2022-11-14T01:31:23;64.13;;;44.93;;
13026;SDS011;6580;42.680;23.324;2022-11-14T01:33:51;65.47;;;44.17;;
13026;SDS011;6580;42.680;23.324;2022-11-14T01:36:19;65.63;;;44.23;;
13026;SDS011;6580;42.680;23.324;2022-11-14T01:38:46;63.83;;;43.33;;
13026;SDS011;6580;42.680;23.324;2022-11-14T01:41:19;69.50;;;45.10;;
13026;SDS011;6580;42.680;23.324;2022-11-14T01:43:47;66.73;;;44.23;;
13026;SDS011;6580;42.680;23.324;2022-11-14T01:46:15;63.10;;;42.63;;
13026;SDS011;6580;42.680;23.324;2022-11-14T01:48:49;64.63;;;42.77;;
13026;SDS011;6580;42.680;23.324;2022-11-14T01:51:21;64.20;;;42.23;;
13026;SDS011;6580;42.680;23.324;2022-11-14T01:53:53;63.93;;;42.37;;
13026;SDS011;6580;42.680;23.324;2022-11-14T01:56:27;61.77;;;41.83;;
13026;SDS011;6580;42.680;23.324;2022-11-14T01:58:59;56.07;;;40.90;;
13026;SDS011;6580;42.680;23.324;2022-11-14T02:01:30;61.60;;;42.80;;
13026;SDS011;6580;42.680;23.324;2022-11-14T02:04:00;61.47;;;40.53;;
13026;SDS011;6580;42.680;23.324;2022-11-14T02:06:29;58.47;;;39.33;;
13026;SDS011;6580;42.680;23.324;2022-11-14T02:08:58;58.63;;;41.60;;
13026;SDS011;6580;42.680;23.324;2022-11-14T02:11:30;58.93;;;40.50;;
13026;SDS011;6580;42.680;23.324;2022-11-14T02:14:00;58.97;;;40.10;;
13026;SDS011;6580;42.680;23.324;2022-11-14T02:16:28;55.67;;;38.83;;
13026;SDS011;6580;42.680;23.324;2022-11-14T02:18:54;54.83;;;40.17;;
13026;SDS011;6580;42.680;23.324;2022-11-14T02:21:23;57.57;;;38.70;;
13026;SDS011;6580;42.680;23.324;2022-11-14T02:23:51;57.80;;;40.07;;
13026;SDS011;6580;42.680;23.324;2022-11-14T02:26:18;53.33;;;37.80;;
13026;SDS011;6580;42.680;23.324;2022-11-14T02:28:45;57.33;;;40.07;;
13026;SDS011;6580;42.680;23.324;2022-11-14T02:31:13;54.47;;;39.17;;
13026;SDS011;6580;42.680;23.324;2022-11-14T02:33:41;56.07;;;38.10;;
13026;SDS011;6580;42.680;23.324;2022-11-14T02:36:08;51.73;;;36.43;;
13026;SDS011;6580;42.680;23.324;2022-11-14T02:38:38;52.57;;;37.67;;
13026;SDS011;6580;42.680;23.324;2022-11-14T02:41:05;56.60;;;37.57;;
13026;SDS011;6580;42.680;23.324;2022-11-14T02:43:32;52.60;;;35.77;;
13026;SDS011;6580;42.680;23.324;2022-11-14T02:45:59;54.80;;;34.43;;
13026;SDS011;6580;42.680;23.324;2022-11-14T02:48:26;51.17;;;35.60;;
13026;SDS011;6580;42.680;23.324;2022-11-14T02:50:53;48.80;;;32.83;;
13026;SDS011;6580;42.680;23.324;2022-11-14T02:53:20;54.97;;;32.90;;
13026;SDS011;6580;42.680;23.324;2022-11-14T02:55:48;51.63;;;32.47;;
13026;SDS011;6580;42.680;23.324;2022-11-14T02:58:15;67.23;;;34.13;;
13026;SDS011;6580;42.680;23.324;2022-11-14T03:00:42;126.43;;;36.40;;
13026;SDS011;6580;42.680;23.324;2022-11-14T03:03:10;119.33;;;36.73;;
13026;SDS011;6580;42.680;23.324;2022-11-14T03:05:39;153.60;;;38.40;;
13026;SDS011;6580;42.680;23.324;2022-11-14T03:08:06;109.17;;;38.07;;
13026;SDS011;6580;42.680;23.324;2022-11-14T03:10:33;112.40;;;37.47;;
13026;SDS011;6580;42.680;23.324;2022-11-14T03:13:01;98.13;;;36.50;;
13026;SDS011;6580;42.680;23.324;2022-11-14T03:15:28;96.93;;;35.83;;
13026;SDS011;6580;42.680;23.324;2022-11-14T03:17:59;81.93;;;37.50;;
13026;SDS011;6580;42.680;23.324;2022-11-14T03:20:26;67.10;;;35.10;;
13026;SDS011;6580;42.680;23.324;2022-11-14T03:22:53;80.77;;;35.97;;
13026;SDS011;6580;42.680;23.324;2022-11-14T03:25:20;112.13;;;36.40;;
13026;SDS011;6580;42.680;23.324;2022-11-14T03:27:49;89.17;;;35.17;;
13026;SDS011;6580;42.680;23.324;2022-11-14T03:30:20;75.90;;;34.97;;
13026;SDS011;6580;42.680;23.324;2022-11-14T03:32:47;69.03;;;34.17;;
13026;SDS011;6580;42.680;23.324;2022-11-14T03:35:15;63.07;;;34.83;;
13026;SDS011;6580;42.680;23.324;2022-11-14T03:37:41;69.20;;;35.37;;
13026;SDS011;6580;42.680;23.324;2022-11-14T03:40:09;63.23;;;35.00;;
13026;SDS011;6580;42.680;23.324;2022-11-14T03:42:36;67.17;;;36.03;;
13026;SDS011;6580;42.680;23.324;2022-11-14T03:45:04;67.23;;;35.17;;
13026;SDS011;6580;42.680;23.324;2022-11-14T03:47:32;64.17;;;33.80;;
13026;SDS011;6580;42.680;23.324;2022-11-14T03:50:04;86.90;;;32.30;;
13026;SDS011;6580;42.680;23.324;2022-11-14T03:52:31;57.43;;;31.77;;
13026;SDS011;6580;42.680;23.324;2022-11-14T03:54:58;55.50;;;31.87;;
13026;SDS011;6580;42.680;23.324;2022-11-14T03:57:25;62.13;;;33.73;;
13026;SDS011;6580;42.680;23.324;2022-11-14T03:59:53;56.97;;;33.40;;
13026;SDS011;6580;42.680;23.324;2022-11-14T04:02:20;113.07;;;36.40;;
13026;SDS011;6580;42.680;23.324;2022-11-14T04:04:50;91.13;;;34.73;;
13026;SDS011;6580;42.680;23.324;2022-11-14T04:07:18;82.30;;;33.93;;
13026;SDS011;6580;42.680;23.324;2022-11-14T04:09:46;155.67;;;35.37;;
13026;SDS011;6580;42.680;23.324;2022-11-14T04:12:13;119.43;;;37.40;;
13026;SDS011;6580;42.680;23.324;2022-11-14T04:14:40;137.97;;;38.80;;
13026;SDS011;6580;42.680;23.324;2022-11-14T04:17:06;108.90;;;36.90;;
13026;SDS011;6580;42.680;23.324;2022-11-14T04:19:34;165.60;;;36.40;;
13026;SDS011;6580;42.680;23.324;2022-11-14T04:22:03;85.00;;;32.10;;
13026;SDS011;6580;42.680;23.324;2022-11-14T04:24:30;113.83;;;34.57;;
13026;SDS011;6580;42.680;23.324;2022-11-14T04:26:57;127.30;;;34.77;;
13026;SDS011;6580;42.680;23.324;2022-11-14T04:29:26;109.30;;;34.57;;
13026;SDS011;6580;42.680;23.324;2022-11-14T04:31:53;104.50;;;33.37;;
13026;SDS011;6580;42.680;23.324;2022-11-14T04:34:20;89.37;;;33.77;;
13026;SDS011;6580;42.680;23.324;2022-11-14T04:36:46;68.47;;;32.77;;
13026;SDS011;6580;42.680;23.324;2022-11-14T04:39:16;77.07;;;35.50;;
13026;SDS011;6580;42.680;23.324;2022-11-14T04:41:43;70.77;;;33.20;;
13026;SDS011;6580;42.680;23.324;2022-11-14T04:44:10;95.60;;;34.60;;
13026;SDS011;6580;42.680;23.324;2022-11-14T04:46:37;88.40;;;33.30;;
13026;SDS011;6580;42.680;23.324;2022-11-14T04:49:04;75.30;;;32.30;;
13026;SDS011;6580;42.680;23.324;2022-11-14T04:51:30;89.63;;;34.03;;
13026;SDS011;6580;42.680;23.324;2022-11-14T04:53:57;67.63;;;34.50;;
13026;SDS011;6580;42.680;23.324;2022-11-14T04:56:26;76.40;;;34.53;;
13026;SDS011;6580;42.680;23.324;2022-11-14T04:58:54;63.13;;;34.00;;
13026;SDS011;6580;42.680;23.324;2022-11-14T05:01:21;69.80;;;32.10;;
13026;SDS011;6580;42.680;23.324;2022-11-14T05:03:49;56.10;;;30.87;;
13026;SDS011;6580;42.680;23.324;2022-11-14T05:06:16;77.73;;;33.77;;
13026;SDS011;6580;42.680;23.324;2022-11-14T05:08:43;76.27;;;34.73;;
13026;SDS011;6580;42.680;23.324;2022-11-14T05:11:12;59.77;;;33.83;;
13026;SDS011;6580;42.680;23.324;2022-11-14T05:13:41;69.90;;;32.27;;
13026;SDS011;6580;42.680;23.324;2022-11-14T05:16:08;68.10;;;33.90;;
13026;SDS011;6580;42.680;23.324;2022-11-14T05:18:36;78.33;;;33.73;;
13026;SDS011;6580;42.680;23.324;2022-11-14T05:21:04;63.17;;;32.63;;
13026;SDS011;6580;42.680;23.324;2022-11-14T05:23:32;70.47;;;32.40;;
13026;SDS011;6580;42.680;23.324;2022-11-14T05:26:00;84.67;;;35.43;;
13026;SDS011;6580;42.680;23.324;2022-11-14T05:28:29;72.00;;;33.43;;
13026;SDS011;6580;42.680;23.324;2022-11-14T05:31:02;76.43;;;33.20;;
13026;SDS011;6580;42.680;23.324;2022-11-14T05:33:31;76.67;;;33.27;;
13026;SDS011;6580;42.680;23.324;2022-11-14T05:36:05;63.00;;;33.20;;
13026;SDS011;6580;42.680;23.324;2022-11-14T05:38:33;70.80;;;31.73;;
13026;SDS011;6580;42.680;23.324;2022-11-14T05:41:03;81.63;;;33.93;;
13026;SDS011;6580;42.680;23.324;2022-11-14T05:43:32;56.53;;;32.43;;
13026;SDS011;6580;42.680;23.324;2022-11-14T05:45:59;57.87;;;31.17;;
13026;SDS011;6580;42.680;23.324;2022-11-14T05:48:30;50.00;;;29.83;;
13026;SDS011;6580;42.680;23.324;2022-11-14T05:50:58;56.83;;;28.90;;
13026;SDS011;6580;42.680;23.324;2022-11-14T05:53:26;57.50;;;29.43;;
13026;SDS011;6580;42.680;23.324;2022-11-14T05:55:54;59.93;;;27.77;;
13026;SDS011;6580;42.680;23.324;2022-11-14T05:58:23;52.20;;;29.30;;
13026;SDS011;6580;42.680;23.324;2022-11-14T06:00:52;45.33;;;26.30;;
13026;SDS011;6580;42.680;23.324;2022-11-14T06:03:18;68.20;;;26.03;;
13026;SDS011;6580;42.680;23.324;2022-11-14T06:05:49;36.37;;;23.97;;
13026;SDS011;6580;42.680;23.324;2022-11-14T06:08:16;36.10;;;22.67;;
13026;SDS011;6580;42.680;23.324;2022-11-14T06:10:43;36.73;;;24.23;;
13026;SDS011;6580;42.680;23.324;2022-11-14T06:13:10;30.13;;;18.97;;
13026;SDS011;6580;42.680;23.324;2022-11-14T06:15:37;27.67;;;19.90;;
13026;SDS011;6580;42.680;23.324;2022-11-14T06:18:05;28.10;;;19.10;;
13026;SDS011;6580;42.680;23.324;2022-11-14T06:20:33;31.20;;;20.07;;
13026;SDS011;6580;42.680;23.324;2022-11-14T06:23:05;28.90;;;19.33;;
13026;SDS011;6580;42.680;23.324;2022-11-14T06:25:32;27.40;;;19.90;;
13026;SDS011;6580;42.680;23.324;2022-11-14T06:27:59;28.43;;;19.60;;
13026;SDS011;6580;42.680;23.324;2022-11-14T06:30:26;28.67;;;19.97;;
13026;SDS011;6580;42.680;23.324;2022-11-14T06:32:55;27.70;;;18.30;;
13026;SDS011;6580;42.680;23.324;2022-11-14T06:35:23;25.87;;;18.43;;
13026;SDS011;6580;42.680;23.324;2022-11-14T06:37:53;27.80;;;19.37;;
13026;SDS011;6580;42.680;23.324;2022-11-14T06:40:21;30.93;;;22.33;;
13026;SDS011;6580;42.680;23.324;2022-11-14T06:42:49;32.80;;;21.30;;
13026;SDS011;6580;42.680;23.324;2022-11-14T06:45:16;33.60;;;21.47;;
13026;SDS011;6580;42.680;23.324;2022-11-14T06:47:43;33.87;;;22.70;;
13026;SDS011;6580;42.680;23.324;2022-11-14T06:50:09;29.57;;;21.50;;
13026;SDS011;6580;42.680;23.324;2022-11-14T06:52:36;32.63;;;21.50;;
13026;SDS011;6580;42.680;23.324;2022-11-14T06:55:03;31.53;;;22.20;;
13026;SDS011;6580;42.680;23.324;2022-11-14T06:57:32;33.07;;;22.97;;
13026;SDS011;6580;42.680;23.324;2022-11-14T06:59:59;35.97;;;23.27;;
13026;SDS011;6580;42.680;23.324;2022-11-14T07:02:26;32.43;;;20.47;;
13026;SDS011;6580;42.680;23.324;2022-11-14T07:04:56;33.13;;;24.20;;
13026;SDS011;6580;42.680;23.324;2022-11-14T07:07:22;31.77;;;22.60;;
13026;SDS011;6580;42.680;23.324;2022-11-14T07:09:49;27.40;;;21.33;;
13026;SDS011;6580;42.680;23.324;2022-11-14T07:12:18;29.77;;;20.73;;
13026;SDS011;6580;42.680;23.324;2022-11-14T07:14:46;30.47;;;22.13;;
13026;SDS011;6580;42.680;23.324;2022-11-14T07:17:14;29.50;;;21.97;;
13026;SDS011;6580;42.680;23.324;2022-11-14T07:19:41;31.90;;;20.80;;
13026;SDS011;6580;42.680;23.324;2022-11-14T07:22:08;27.00;;;19.57;;
13026;SDS011;6580;42.680;23.324;2022-11-14T07:24:37;27.17;;;18.97;;
13026;SDS011;6580;42.680;23.324;2022-11-14T07:27:04;25.40;;;19.20;;
13026;SDS011;6580;42.680;23.324;2022-11-14T07:29:35;28.17;;;21.03;;
13026;SDS011;6580;42.680;23.324;2022-11-14T07:32:05;30.10;;;21.83;;
13026;SDS011;6580;42.680;23.324;2022-11-14T07:34:32;27.67;;;19.97;;
13026;SDS011;6580;42.680;23.324;2022-11-14T07:36:59;34.57;;;23.27;;
13026;SDS011;6580;42.680;23.324;2022-11-14T07:39:26;31.83;;;21.33;;
13026;SDS011;6580;42.680;23.324;2022-11-14T07:41:53;30.67;;;21.83;;
13026;SDS011;6580;42.680;23.324;2022-11-14T07:44:20;31.03;;;21.77;;
13026;SDS011;6580;42.680;23.324;2022-11-14T07:46:47;32.30;;;22.13;;
13026;SDS011;6580;42.680;23.324;2022-11-14T07:49:17;30.90;;;21.70;;
13026;SDS011;6580;42.680;23.324;2022-11-14T07:51:44;31.10;;;22.17;;
13026;SDS011;6580;42.680;23.324;2022-11-14T07:54:11;32.80;;;22.53;;
13026;SDS011;6580;42.680;23.324;2022-11-14T07:56:38;32.67;;;23.30;;
13026;SDS011;6580;42.680;23.324;2022-11-14T07:59:05;36.00;;;24.87;;
13026;SDS011;6580;42.680;23.324;2022-11-14T08:01:32;33.00;;;23.73;;
13026;SDS011;6580;42.680;23.324;2022-11-14T08:03:59;36.50;;;23.80;;
13026;SDS011;6580;42.680;23.324;2022-11-14T08:06:28;35.37;;;24.13;;
13026;SDS011;6580;42.680;23.324;2022-11-14T08:08:55;34.23;;;24.63;;
13026;SDS011;6580;42.680;23.324;2022-11-14T08:11:22;32.97;;;23.03;;
13026;SDS011;6580;42.680;23.324;2022-11-14T08:14:03;35.47;;;24.03;;
13026;SDS011;6580;42.680;23.324;2022-11-14T08:16:29;33.83;;;24.57;;
13026;SDS011;6580;42.680;23.324;2022-11-14T08:18:57;32.50;;;25.33;;
13026;SDS011;6580;42.680;23.324;2022-11-14T08:21:27;37.00;;;25.57;;
13026;SDS011;6580;42.680;23.324;2022-11-14T08:23:54;35.30;;;24.67;;
13026;SDS011;6580;42.680;23.324;2022-11-14T08:26:21;33.93;;;25.83;;
13026;SDS011;6580;42.680;23.324;2022-11-14T08:28:51;36.67;;;26.17;;
13026;SDS011;6580;42.680;23.324;2022-11-14T08:31:19;33.23;;;26.13;;
13026;SDS011;6580;42.680;23.324;2022-11-14T08:33:47;37.57;;;26.37;;
13026;SDS011;6580;42.680;23.324;2022-11-14T08:36:16;37.33;;;26.77;;
13026;SDS011;6580;42.680;23.324;2022-11-14T08:38:46;37.60;;;26.97;;
13026;SDS011;6580;42.680;23.324;2022-11-14T08:41:12;37.47;;;27.20;;
13026;SDS011;6580;42.680;23.324;2022-11-14T08:43:40;38.17;;;26.40;;
13026;SDS011;6580;42.680;23.324;2022-11-14T08:46:06;36.63;;;27.33;;
13026;SDS011;6580;42.680;23.324;2022-11-14T08:48:34;36.50;;;27.67;;
13026;SDS011;6580;42.680;23.324;2022-11-14T08:51:02;34.73;;;26.17;;
13026;SDS011;6580;42.680;23.324;2022-11-14T08:53:30;38.93;;;28.63;;
13026;SDS011;6580;42.680;23.324;2022-11-14T08:55:58;35.33;;;26.13;;
13026;SDS011;6580;42.680;23.324;2022-11-14T08:58:26;33.87;;;27.47;;
13026;SDS011;6580;42.680;23.324;2022-11-14T09:00:59;36.77;;;27.93;;
13026;SDS011;6580;42.680;23.324;2022-11-14T09:03:27;35.30;;;26.13;;
13026;SDS011;6580;42.680;23.324;2022-11-14T09:05:54;34.23;;;26.43;;
13026;SDS011;6580;42.680;23.324;2022-11-14T09:08:21;31.43;;;24.83;;
13026;SDS011;6580;42.680;23.324;2022-11-14T09:10:52;32.10;;;25.43;;
13026;SDS011;6580;42.680;23.324;2022-11-14T09:13:20;34.17;;;26.07;;
13026;SDS011;6580;42.680;23.324;2022-11-14T09:15:47;33.70;;;27.30;;
13026;SDS011;6580;42.680;23.324;2022-11-14T09:18:15;31.97;;;26.73;;
13026;SDS011;6580;42.680;23.324;2022-11-14T09:20:42;31.40;;;25.23;;
13026;SDS011;6580;42.680;23.324;2022-11-14T09:23:09;35.07;;;26.07;;
13026;SDS011;6580;42.680;23.324;2022-11-14T09:25:38;31.73;;;26.90;;
13026;SDS011;6580;42.680;23.324;2022-11-14T09:28:05;36.27;;;28.20;;
13026;SDS011;6580;42.680;23.324;2022-11-14T09:30:35;38.23;;;27.83;;
13026;SDS011;6580;42.680;23.324;2022-11-14T09:33:05;38.07;;;29.07;;
13026;SDS011;6580;42.680;23.324;2022-11-14T09:35:32;32.13;;;27.03;;
13026;SDS011;6580;42.680;23.324;2022-11-14T09:38:01;35.43;;;28.37;;
13026;SDS011;6580;42.680;23.324;2022-11-14T09:40:29;35.40;;;28.83;;
13026;SDS011;6580;42.680;23.324;2022-11-14T09:43:08;34.50;;;29.87;;
13026;SDS011;6580;42.680;23.324;2022-11-14T09:45:51;32.93;;;28.03;;
13026;SDS011;6580;42.680;23.324;2022-11-14T09:48:20;37.63;;;28.73;;
13026;SDS011;6580;42.680;23.324;2022-11-14T09:50:59;34.17;;;27.37;;
13026;SDS011;6580;42.680;23.324;2022-11-14T09:53:36;43.40;;;32.03;;
13026;SDS011;6580;42.680;23.324;2022-11-14T09:56:08;42.50;;;31.00;;
13026;SDS011;6580;42.680;23.324;2022-11-14T09:58:38;39.63;;;31.03;;
13026;SDS011;6580;42.680;23.324;2022-11-14T10:01:10;43.20;;;31.50;;
13026;SDS011;6580;42.680;23.324;2022-11-14T10:03:46;40.07;;;31.20;;
13026;SDS011;6580;42.680;23.324;2022-11-14T10:06:20;44.73;;;31.80;;
13026;SDS011;6580;42.680;23.324;2022-11-14T10:08:59;40.40;;;30.93;;
13026;SDS011;6580;42.680;23.324;2022-11-14T10:11:51;40.83;;;30.03;;
13026;SDS011;6580;42.680;23.324;2022-11-14T10:14:37;38.87;;;30.40;;
13026;SDS011;6580;42.680;23.324;2022-11-14T10:17:21;43.23;;;32.97;;
13026;SDS011;6580;42.680;23.324;2022-11-14T10:20:08;42.87;;;33.10;;
13026;SDS011;6580;42.680;23.324;2022-11-14T10:22:48;39.97;;;31.33;;
13026;SDS011;6580;42.680;23.324;2022-11-14T10:25:31;37.40;;;30.27;;
13026;SDS011;6580;42.680;23.324;2022-11-14T10:28:13;40.17;;;31.53;;
13026;SDS011;6580;42.680;23.324;2022-11-14T10:30:57;36.87;;;30.07;;
13026;SDS011;6580;42.680;23.324;2022-11-14T10:33:34;42.23;;;31.77;;
13026;SDS011;6580;42.680;23.324;2022-11-14T10:36:11;40.43;;;32.13;;
13026;SDS011;6580;42.680;23.324;2022-11-14T10:38:48;48.37;;;41.50;;
13026;SDS011;6580;42.680;23.324;2022-11-14T10:41:18;36.30;;;30.30;;
13026;SDS011;6580;42.680;23.324;2022-11-14T10:43:46;39.33;;;30.93;;
13026;SDS011;6580;42.680;23.324;2022-11-14T10:46:15;41.50;;;32.53;;
13026;SDS011;6580;42.680;23.324;2022-11-14T10:48:49;37.03;;;29.23;;
13026;SDS011;6580;42.680;23.324;2022-11-14T10:51:18;37.47;;;30.80;;
13026;SDS011;6580;42.680;23.324;2022-11-14T10:53:49;56.23;;;44.33;;
13026;SDS011;6580;42.680;23.324;2022-11-14T10:56:20;36.73;;;29.73;;
13026;SDS011;6580;42.680;23.324;2022-11-14T10:58:47;38.53;;;30.57;;
13026;SDS011;6580;42.680;23.324;2022-11-14T11:01:33;41.23;;;31.90;;
13026;SDS011;6580;42.680;23.324;2022-11-14T11:07:16;36.50;;;30.37;;
13026;SDS011;6580;42.680;23.324;2022-11-14T11:10:04;37.40;;;30.80;;
13026;SDS011;6580;42.680;23.324;2022-11-14T11:12:50;37.77;;;31.90;;
13026;SDS011;6580;42.680;23.324;2022-11-14T11:15:22;37.40;;;29.17;;
13026;SDS011;6580;42.680;23.324;2022-11-14T11:17:55;36.87;;;29.87;;
13026;SDS011;6580;42.680;23.324;2022-11-14T11:20:26;33.60;;;28.87;;
13026;SDS011;6580;42.680;23.324;2022-11-14T11:23:03;36.50;;;30.03;;
13026;SDS011;6580;42.680;23.324;2022-11-14T11:25:32;36.40;;;30.50;;
13026;SDS011;6580;42.680;23.324;2022-11-14T11:28:08;37.20;;;31.93;;
13026;SDS011;6580;42.680;23.324;2022-11-14T11:30:38;37.70;;;33.20;;
13026;SDS011;6580;42.680;23.324;2022-11-14T11:33:13;39.67;;;33.27;;
13026;SDS011;6580;42.680;23.324;2022-11-14T11:35:46;41.53;;;34.13;;
13026;SDS011;6580;42.680;23.324;2022-11-14T11:38:15;46.73;;;33.90;;
13026;SDS011;6580;42.680;23.324;2022-11-14T11:40:45;47.17;;;36.97;;
13026;SDS011;6580;42.680;23.324;2022-11-14T11:43:17;43.90;;;34.00;;
13026;SDS011;6580;42.680;23.324;2022-11-14T11:45:53;42.23;;;33.93;;
13026;SDS011;6580;42.680;23.324;2022-11-14T11:48:22;43.60;;;36.23;;
13026;SDS011;6580;42.680;23.324;2022-11-14T11:50:59;45.67;;;36.23;;
13026;SDS011;6580;42.680;23.324;2022-11-14T11:53:30;41.80;;;35.53;;
13026;SDS011;6580;42.680;23.324;2022-11-14T11:56:05;40.47;;;34.63;;
13026;SDS011;6580;42.680;23.324;2022-11-14T11:58:36;45.00;;;35.20;;
13026;SDS011;6580;42.680;23.324;2022-11-14T12:01:09;41.57;;;35.20;;
13026;SDS011;6580;42.680;23.324;2022-11-14T12:03:36;43.97;;;36.50;;
13026;SDS011;6580;42.680;23.324;2022-11-14T12:06:08;41.83;;;35.43;;
13026;SDS011;6580;42.680;23.324;2022-11-14T12:08:42;45.53;;;35.80;;
13026;SDS011;6580;42.680;23.324;2022-11-14T12:11:19;41.27;;;34.93;;
13026;SDS011;6580;42.680;23.324;2022-11-14T12:13:56;43.73;;;36.17;;
13026;SDS011;6580;42.680;23.324;2022-11-14T12:16:57;49.30;;;36.63;;
13026;SDS011;6580;42.680;23.324;2022-11-14T12:19:58;42.70;;;36.10;;
13026;SDS011;6580;42.680;23.324;2022-11-14T12:28:49;44.50;;;35.40;;
13026;SDS011;6580;42.680;23.324;2022-11-14T12:31:34;41.03;;;35.53;;
13026;SDS011;6580;42.680;23.324;2022-11-14T12:34:04;44.07;;;36.90;;
13026;SDS011;6580;42.680;23.324;2022-11-14T12:36:39;43.87;;;36.23;;
13026;SDS011;6580;42.680;23.324;2022-11-14T12:39:19;44.13;;;36.90;;
13026;SDS011;6580;42.680;23.324;2022-11-14T12:41:48;45.60;;;37.33;;
13026;SDS011;6580;42.680;23.324;2022-11-14T12:44:30;41.43;;;36.10;;
13026;SDS011;6580;42.680;23.324;2022-11-14T12:47:11;46.00;;;38.70;;
13026;SDS011;6580;42.680;23.324;2022-11-14T12:53:05;46.50;;;39.17;;
13026;SDS011;6580;42.680;23.324;2022-11-14T12:59:19;48.17;;;38.27;;
13026;SDS011;6580;42.680;23.324;2022-11-14T13:02:05;44.80;;;35.47;;
13026;SDS011;6580;42.680;23.324;2022-11-14T13:04:51;48.20;;;37.67;;
13026;SDS011;6580;42.680;23.324;2022-11-14T13:07:32;46.97;;;37.67;;
13026;SDS011;6580;42.680;23.324;2022-11-14T13:10:12;46.87;;;37.97;;
13026;SDS011;6580;42.680;23.324;2022-11-14T13:12:41;45.07;;;36.93;;
13026;SDS011;6580;42.680;23.324;2022-11-14T13:15:48;47.50;;;38.20;;
13026;SDS011;6580;42.680;23.324;2022-11-14T13:18:34;45.93;;;37.70;;
13026;SDS011;6580;42.680;23.324;2022-11-14T13:21:20;42.93;;;36.87;;
13026;SDS011;6580;42.680;23.324;2022-11-14T13:24:08;46.60;;;39.13;;
13026;SDS011;6580;42.680;23.324;2022-11-14T13:26:46;46.97;;;37.73;;
13026;SDS011;6580;42.680;23.324;2022-11-14T13:35:15;52.30;;;40.60;;
13026;SDS011;6580;42.680;23.324;2022-11-14T13:37:59;48.50;;;39.43;;
13026;SDS011;6580;42.680;23.324;2022-11-14T13:40:54;50.17;;;40.07;;
13026;SDS011;6580;42.680;23.324;2022-11-14T13:43:36;50.27;;;40.13;;
13026;SDS011;6580;42.680;23.324;2022-11-14T13:46:15;54.17;;;39.33;;
13026;SDS011;6580;42.680;23.324;2022-11-14T13:48:59;49.97;;;39.93;;
13026;SDS011;6580;42.680;23.324;2022-11-14T13:51:38;51.43;;;39.57;;
13026;SDS011;6580;42.680;23.324;2022-11-14T13:54:09;53.27;;;42.20;;
13026;SDS011;6580;42.680;23.324;2022-11-14T13:56:40;54.77;;;41.67;;
13026;SDS011;6580;42.680;23.324;2022-11-14T14:02:15;56.83;;;41.60;;
13026;SDS011;6580;42.680;23.324;2022-11-14T14:05:03;51.23;;;41.47;;
13026;SDS011;6580;42.680;23.324;2022-11-14T14:07:47;54.30;;;41.67;;
13026;SDS011;6580;42.680;23.324;2022-11-14T14:10:25;52.57;;;40.73;;
13026;SDS011;6580;42.680;23.324;2022-11-14T14:12:58;55.87;;;42.13;;
13026;SDS011;6580;42.680;23.324;2022-11-14T14:15:39;52.83;;;40.43;;
13026;SDS011;6580;42.680;23.324;2022-11-14T14:18:19;52.70;;;40.93;;
13026;SDS011;6580;42.680;23.324;2022-11-14T14:20:53;53.97;;;39.80;;
13026;SDS011;6580;42.680;23.324;2022-11-14T14:23:34;53.10;;;41.30;;
13026;SDS011;6580;42.680;23.324;2022-11-14T14:26:14;51.57;;;40.80;;
13026;SDS011;6580;42.680;23.324;2022-11-14T14:28:53;54.50;;;43.17;;
13026;SDS011;6580;42.680;23.324;2022-11-14T14:31:30;54.47;;;41.93;;
13026;SDS011;6580;42.680;23.324;2022-11-14T14:34:01;51.17;;;41.57;;
13026;SDS011;6580;42.680;23.324;2022-11-14T14:36:29;51.90;;;41.63;;
13026;SDS011;6580;42.680;23.324;2022-11-14T14:39:10;65.03;;;43.67;;
13026;SDS011;6580;42.680;23.324;2022-11-14T14:41:42;57.13;;;44.27;;
13026;SDS011;6580;42.680;23.324;2022-11-14T14:44:16;61.53;;;44.67;;
13026;SDS011;6580;42.680;23.324;2022-11-14T14:46:47;56.07;;;43.43;;
13026;SDS011;6580;42.680;23.324;2022-11-14T14:49:16;58.83;;;44.57;;
13026;SDS011;6580;42.680;23.324;2022-11-14T14:51:48;62.57;;;44.83;;
13026;SDS011;6580;42.680;23.324;2022-11-14T14:54:21;59.27;;;46.57;;
13026;SDS011;6580;42.680;23.324;2022-11-14T14:56:53;58.40;;;44.40;;
13026;SDS011;6580;42.680;23.324;2022-11-14T14:59:27;61.97;;;45.47;;
13026;SDS011;6580;42.680;23.324;2022-11-14T15:01:56;59.63;;;43.40;;
13026;SDS011;6580;42.680;23.324;2022-11-14T15:04:25;59.17;;;44.33;;
13026;SDS011;6580;42.680;23.324;2022-11-14T15:06:55;54.17;;;42.87;;